sensor_id;sensor_type;location;lat;lon;timestamp;P1;durP1;ratioP1;P2;durP2;ratioP2
35675;SDS011;21790;42.668;23.298;2023-11-21T00:01:35;32.83;;;14.10;;
35675;SDS011;21790;42.668;23.298;2023-11-21T00:04:02;32.97;;;14.82;;
35675;SDS011;21790;42.668;23.298;2023-11-21T00:06:28;30.65;;;13.82;;
35675;SDS011;21790;42.668;23.298;2023-11-21T00:09:07;39.95;;;18.00;;
35675;SDS011;21790;42.668;23.298;2023-11-21T00:11:41;100.95;;;42.90;;
35675;SDS011;21790;42.668;23.298;2023-11-21T00:14:07;31.20;;;15.20;;
35675;SDS011;21790;42.668;23.298;2023-11-21T00:16:33;56.80;;;26.17;;
35675;SDS011;21790;42.668;23.298;2023-11-21T00:18:59;28.25;;;14.57;;
35675;SDS011;21790;42.668;23.298;2023-11-21T00:21:24;38.88;;;14.30;;
35675;SDS011;21790;42.668;23.298;2023-11-21T00:23:50;33.78;;;15.48;;
35675;SDS011;21790;42.668;23.298;2023-11-21T00:26:16;31.17;;;13.90;;
35675;SDS011;21790;42.668;23.298;2023-11-21T00:28:57;34.05;;;17.15;;
35675;SDS011;21790;42.668;23.298;2023-11-21T00:31:22;35.95;;;13.88;;
35675;SDS011;21790;42.668;23.298;2023-11-21T00:36:20;32.85;;;14.95;;
35675;SDS011;21790;42.668;23.298;2023-11-21T00:38:46;26.25;;;13.25;;
35675;SDS011;21790;42.668;23.298;2023-11-21T00:41:13;32.47;;;14.80;;
35675;SDS011;21790;42.668;23.298;2023-11-21T00:43:42;28.83;;;14.80;;
35675;SDS011;21790;42.668;23.298;2023-11-21T00:46:09;27.70;;;13.63;;
35675;SDS011;21790;42.668;23.298;2023-11-21T00:48:34;27.92;;;13.80;;
35675;SDS011;21790;42.668;23.298;2023-11-21T00:51:00;30.77;;;13.43;;
35675;SDS011;21790;42.668;23.298;2023-11-21T00:53:26;31.05;;;14.93;;
35675;SDS011;21790;42.668;23.298;2023-11-21T00:55:53;28.00;;;13.63;;
35675;SDS011;21790;42.668;23.298;2023-11-21T00:58:24;24.45;;;13.50;;
35675;SDS011;21790;42.668;23.298;2023-11-21T01:00:52;28.13;;;13.30;;
35675;SDS011;21790;42.668;23.298;2023-11-21T01:03:23;26.00;;;12.82;;
35675;SDS011;21790;42.668;23.298;2023-11-21T01:05:49;27.55;;;13.40;;
35675;SDS011;21790;42.668;23.298;2023-11-21T01:08:16;28.58;;;11.15;;
35675;SDS011;21790;42.668;23.298;2023-11-21T01:10:42;28.88;;;12.32;;
35675;SDS011;21790;42.668;23.298;2023-11-21T01:13:07;19.02;;;9.77;;
35675;SDS011;21790;42.668;23.298;2023-11-21T01:18:05;23.37;;;10.73;;
35675;SDS011;21790;42.668;23.298;2023-11-21T01:20:43;22.15;;;10.85;;
35675;SDS011;21790;42.668;23.298;2023-11-21T01:26:09;23.00;;;11.43;;
35675;SDS011;21790;42.668;23.298;2023-11-21T01:28:48;27.92;;;13.20;;
35675;SDS011;21790;42.668;23.298;2023-11-21T01:31:14;23.75;;;12.00;;
35675;SDS011;21790;42.668;23.298;2023-11-21T01:33:40;26.65;;;13.00;;
35675;SDS011;21790;42.668;23.298;2023-11-21T01:36:07;23.55;;;13.63;;
35675;SDS011;21790;42.668;23.298;2023-11-21T01:38:33;25.27;;;12.48;;
35675;SDS011;21790;42.668;23.298;2023-11-21T01:40:59;27.17;;;12.32;;
35675;SDS011;21790;42.668;23.298;2023-11-21T01:43:26;27.48;;;11.82;;
35675;SDS011;21790;42.668;23.298;2023-11-21T01:45:56;30.55;;;11.75;;
35675;SDS011;21790;42.668;23.298;2023-11-21T01:48:22;24.52;;;12.23;;
35675;SDS011;21790;42.668;23.298;2023-11-21T01:50:50;21.63;;;12.80;;
35675;SDS011;21790;42.668;23.298;2023-11-21T01:53:17;26.65;;;12.90;;
35675;SDS011;21790;42.668;23.298;2023-11-21T01:55:43;28.55;;;10.90;;
35675;SDS011;21790;42.668;23.298;2023-11-21T01:58:11;27.27;;;11.63;;
35675;SDS011;21790;42.668;23.298;2023-11-21T02:00:37;28.45;;;11.57;;
35675;SDS011;21790;42.668;23.298;2023-11-21T02:03:03;28.52;;;12.60;;
35675;SDS011;21790;42.668;23.298;2023-11-21T02:05:29;24.77;;;12.63;;
35675;SDS011;21790;42.668;23.298;2023-11-21T02:10:27;20.52;;;11.32;;
35675;SDS011;21790;42.668;23.298;2023-11-21T02:15:27;21.60;;;11.38;;
35675;SDS011;21790;42.668;23.298;2023-11-21T02:17:55;30.08;;;11.50;;
35675;SDS011;21790;42.668;23.298;2023-11-21T02:23:27;24.33;;;11.23;;
35675;SDS011;21790;42.668;23.298;2023-11-21T02:25:53;20.52;;;11.02;;
35675;SDS011;21790;42.668;23.298;2023-11-21T02:28:23;25.50;;;12.60;;
35675;SDS011;21790;42.668;23.298;2023-11-21T02:30:53;18.85;;;10.23;;
35675;SDS011;21790;42.668;23.298;2023-11-21T02:33:21;23.92;;;11.77;;
35675;SDS011;21790;42.668;23.298;2023-11-21T02:35:47;23.88;;;11.65;;
35675;SDS011;21790;42.668;23.298;2023-11-21T02:38:14;24.15;;;12.05;;
35675;SDS011;21790;42.668;23.298;2023-11-21T02:40:40;23.38;;;12.85;;
35675;SDS011;21790;42.668;23.298;2023-11-21T02:43:08;25.60;;;11.15;;
35675;SDS011;21790;42.668;23.298;2023-11-21T02:45:36;22.63;;;12.60;;
35675;SDS011;21790;42.668;23.298;2023-11-21T02:48:01;24.50;;;11.45;;
35675;SDS011;21790;42.668;23.298;2023-11-21T02:50:30;26.65;;;12.82;;
35675;SDS011;21790;42.668;23.298;2023-11-21T02:52:56;27.13;;;12.25;;
35675;SDS011;21790;42.668;23.298;2023-11-21T02:55:27;25.05;;;12.32;;
35675;SDS011;21790;42.668;23.298;2023-11-21T03:00:37;24.85;;;12.25;;
35675;SDS011;21790;42.668;23.298;2023-11-21T03:05:43;25.40;;;12.90;;
35675;SDS011;21790;42.668;23.298;2023-11-21T03:08:10;29.00;;;13.75;;
35675;SDS011;21790;42.668;23.298;2023-11-21T03:13:48;20.83;;;12.65;;
35675;SDS011;21790;42.668;23.298;2023-11-21T03:16:20;25.33;;;14.07;;
35675;SDS011;21790;42.668;23.298;2023-11-21T03:18:55;25.00;;;11.75;;
35675;SDS011;21790;42.668;23.298;2023-11-21T03:21:22;30.00;;;13.85;;
35675;SDS011;21790;42.668;23.298;2023-11-21T03:37:56;32.72;;;14.90;;
35675;SDS011;21790;42.668;23.298;2023-11-21T03:43:23;27.65;;;13.88;;
35675;SDS011;21790;42.668;23.298;2023-11-21T03:48:37;27.75;;;14.82;;
35675;SDS011;21790;42.668;23.298;2023-11-21T03:53:46;34.22;;;15.68;;
35675;SDS011;21790;42.668;23.298;2023-11-21T03:56:14;27.85;;;15.23;;
35675;SDS011;21790;42.668;23.298;2023-11-21T03:58:44;40.42;;;14.98;;
35675;SDS011;21790;42.668;23.298;2023-11-21T04:01:18;32.75;;;14.90;;
35675;SDS011;21790;42.668;23.298;2023-11-21T04:04:06;28.25;;;15.52;;
35675;SDS011;21790;42.668;23.298;2023-11-21T04:06:32;27.98;;;13.55;;
35675;SDS011;21790;42.668;23.298;2023-11-21T04:08:58;26.85;;;14.32;;
35675;SDS011;21790;42.668;23.298;2023-11-21T04:11:31;35.78;;;16.42;;
35675;SDS011;21790;42.668;23.298;2023-11-21T04:19:31;33.08;;;15.48;;
35675;SDS011;21790;42.668;23.298;2023-11-21T04:24:44;35.90;;;16.17;;
35675;SDS011;21790;42.668;23.298;2023-11-21T04:27:09;28.30;;;15.60;;
35675;SDS011;21790;42.668;23.298;2023-11-21T04:29:35;46.67;;;22.75;;
35675;SDS011;21790;42.668;23.298;2023-11-21T04:34:36;32.05;;;17.30;;
35675;SDS011;21790;42.668;23.298;2023-11-21T04:39:42;41.60;;;21.65;;
35675;SDS011;21790;42.668;23.298;2023-11-21T04:42:18;49.85;;;24.77;;
35675;SDS011;21790;42.668;23.298;2023-11-21T04:44:47;44.92;;;20.85;;
35675;SDS011;21790;42.668;23.298;2023-11-21T04:47:18;46.65;;;21.65;;
35675;SDS011;21790;42.668;23.298;2023-11-21T04:55:25;39.47;;;20.95;;
35675;SDS011;21790;42.668;23.298;2023-11-21T04:58:00;46.05;;;22.33;;
35675;SDS011;21790;42.668;23.298;2023-11-21T05:00:37;40.25;;;22.05;;
35675;SDS011;21790;42.668;23.298;2023-11-21T05:03:09;47.85;;;24.08;;
35675;SDS011;21790;42.668;23.298;2023-11-21T05:05:36;51.10;;;24.88;;
35675;SDS011;21790;42.668;23.298;2023-11-21T05:08:03;48.33;;;23.25;;
35675;SDS011;21790;42.668;23.298;2023-11-21T05:10:39;51.85;;;25.20;;
35675;SDS011;21790;42.668;23.298;2023-11-21T05:15:35;47.58;;;23.30;;
35675;SDS011;21790;42.668;23.298;2023-11-21T05:18:11;52.95;;;22.02;;
35675;SDS011;21790;42.668;23.298;2023-11-21T05:20:39;45.80;;;24.85;;
35675;SDS011;21790;42.668;23.298;2023-11-21T05:23:07;45.65;;;21.70;;
35675;SDS011;21790;42.668;23.298;2023-11-21T05:25:34;45.55;;;21.95;;
35675;SDS011;21790;42.668;23.298;2023-11-21T05:31:17;47.40;;;23.10;;
35675;SDS011;21790;42.668;23.298;2023-11-21T05:33:43;42.65;;;21.45;;
35675;SDS011;21790;42.668;23.298;2023-11-21T05:36:08;46.05;;;22.85;;
35675;SDS011;21790;42.668;23.298;2023-11-21T05:38:43;42.95;;;21.60;;
35675;SDS011;21790;42.668;23.298;2023-11-21T05:43:39;40.90;;;21.70;;
35675;SDS011;21790;42.668;23.298;2023-11-21T05:46:08;44.78;;;22.48;;
35675;SDS011;21790;42.668;23.298;2023-11-21T05:48:34;51.30;;;23.33;;
35675;SDS011;21790;42.668;23.298;2023-11-21T05:51:06;41.88;;;22.45;;
35675;SDS011;21790;42.668;23.298;2023-11-21T05:53:46;42.30;;;21.23;;
35675;SDS011;21790;42.668;23.298;2023-11-21T05:56:13;41.47;;;21.40;;
35675;SDS011;21790;42.668;23.298;2023-11-21T05:58:38;42.17;;;21.42;;
35675;SDS011;21790;42.668;23.298;2023-11-21T06:01:05;40.10;;;19.83;;
35675;SDS011;21790;42.668;23.298;2023-11-21T06:06:07;37.03;;;20.42;;
35675;SDS011;21790;42.668;23.298;2023-11-21T06:08:35;49.58;;;19.90;;
35675;SDS011;21790;42.668;23.298;2023-11-21T06:11:00;47.15;;;21.55;;
35675;SDS011;21790;42.668;23.298;2023-11-21T06:13:26;40.15;;;21.13;;
35675;SDS011;21790;42.668;23.298;2023-11-21T06:15:52;51.83;;;21.60;;
35675;SDS011;21790;42.668;23.298;2023-11-21T06:18:18;46.70;;;22.73;;
35675;SDS011;21790;42.668;23.298;2023-11-21T06:20:53;43.92;;;22.77;;
35675;SDS011;21790;42.668;23.298;2023-11-21T06:26:38;42.70;;;21.23;;
35675;SDS011;21790;42.668;23.298;2023-11-21T06:37:04;50.00;;;22.08;;
35675;SDS011;21790;42.668;23.298;2023-11-21T06:39:30;43.25;;;22.13;;
35675;SDS011;21790;42.668;23.298;2023-11-21T06:42:03;47.85;;;22.00;;
35675;SDS011;21790;42.668;23.298;2023-11-21T06:44:29;49.50;;;20.90;;
35675;SDS011;21790;42.668;23.298;2023-11-21T06:46:57;46.53;;;20.63;;
35675;SDS011;21790;42.668;23.298;2023-11-21T06:49:25;47.80;;;20.65;;
35675;SDS011;21790;42.668;23.298;2023-11-21T06:52:01;44.40;;;19.90;;
35675;SDS011;21790;42.668;23.298;2023-11-21T06:54:30;48.92;;;20.65;;
35675;SDS011;21790;42.668;23.298;2023-11-21T06:56:56;45.13;;;20.02;;
35675;SDS011;21790;42.668;23.298;2023-11-21T06:59:23;42.05;;;21.65;;
35675;SDS011;21790;42.668;23.298;2023-11-21T07:01:49;43.15;;;21.33;;
35675;SDS011;21790;42.668;23.298;2023-11-21T07:04:14;47.13;;;21.55;;
35675;SDS011;21790;42.668;23.298;2023-11-21T07:06:40;42.97;;;20.10;;
35675;SDS011;21790;42.668;23.298;2023-11-21T07:09:06;39.28;;;21.05;;
35675;SDS011;21790;42.668;23.298;2023-11-21T07:11:33;51.28;;;23.60;;
35675;SDS011;21790;42.668;23.298;2023-11-21T07:13:59;64.97;;;26.88;;
35675;SDS011;21790;42.668;23.298;2023-11-21T07:16:30;61.00;;;27.52;;
35675;SDS011;21790;42.668;23.298;2023-11-21T07:18:56;59.63;;;29.17;;
35675;SDS011;21790;42.668;23.298;2023-11-21T07:21:21;56.33;;;27.92;;
35675;SDS011;21790;42.668;23.298;2023-11-21T07:23:47;53.72;;;27.80;;
35675;SDS011;21790;42.668;23.298;2023-11-21T07:26:12;51.25;;;25.58;;
35675;SDS011;21790;42.668;23.298;2023-11-21T07:28:38;40.50;;;19.85;;
35675;SDS011;21790;42.668;23.298;2023-11-21T07:31:03;35.15;;;18.67;;
35675;SDS011;21790;42.668;23.298;2023-11-21T07:33:29;36.67;;;18.10;;
35675;SDS011;21790;42.668;23.298;2023-11-21T07:35:55;36.53;;;21.02;;
35675;SDS011;21790;42.668;23.298;2023-11-21T07:38:21;36.88;;;18.40;;
35675;SDS011;21790;42.668;23.298;2023-11-21T07:40:46;40.72;;;20.92;;
35675;SDS011;21790;42.668;23.298;2023-11-21T07:43:12;44.15;;;20.13;;
35675;SDS011;21790;42.668;23.298;2023-11-21T07:45:37;40.35;;;19.88;;
35675;SDS011;21790;42.668;23.298;2023-11-21T07:48:04;41.90;;;19.80;;
35675;SDS011;21790;42.668;23.298;2023-11-21T07:50:30;43.08;;;20.23;;
35675;SDS011;21790;42.668;23.298;2023-11-21T07:52:56;56.33;;;24.70;;
35675;SDS011;21790;42.668;23.298;2023-11-21T07:55:22;45.13;;;21.30;;
35675;SDS011;21790;42.668;23.298;2023-11-21T07:57:49;48.75;;;21.63;;
35675;SDS011;21790;42.668;23.298;2023-11-21T08:00:15;48.78;;;22.15;;
35675;SDS011;21790;42.668;23.298;2023-11-21T08:02:41;44.33;;;22.52;;
35675;SDS011;21790;42.668;23.298;2023-11-21T08:05:12;46.65;;;22.10;;
35675;SDS011;21790;42.668;23.298;2023-11-21T08:07:37;45.30;;;21.27;;
35675;SDS011;21790;42.668;23.298;2023-11-21T08:10:03;41.33;;;20.73;;
35675;SDS011;21790;42.668;23.298;2023-11-21T08:12:32;37.78;;;20.77;;
35675;SDS011;21790;42.668;23.298;2023-11-21T08:14:58;48.25;;;22.20;;
35675;SDS011;21790;42.668;23.298;2023-11-21T08:17:25;39.50;;;20.58;;
35675;SDS011;21790;42.668;23.298;2023-11-21T08:19:51;45.20;;;21.50;;
35675;SDS011;21790;42.668;23.298;2023-11-21T08:22:16;32.13;;;20.08;;
35675;SDS011;21790;42.668;23.298;2023-11-21T08:24:43;38.22;;;20.80;;
35675;SDS011;21790;42.668;23.298;2023-11-21T08:27:09;45.65;;;21.67;;
35675;SDS011;21790;42.668;23.298;2023-11-21T08:29:35;39.53;;;21.27;;
35675;SDS011;21790;42.668;23.298;2023-11-21T08:32:01;45.78;;;21.80;;
35675;SDS011;21790;42.668;23.298;2023-11-21T08:34:27;49.10;;;21.70;;
35675;SDS011;21790;42.668;23.298;2023-11-21T08:36:53;42.97;;;21.65;;
35675;SDS011;21790;42.668;23.298;2023-11-21T08:39:20;47.17;;;21.67;;
35675;SDS011;21790;42.668;23.298;2023-11-21T08:41:49;42.05;;;21.02;;
35675;SDS011;21790;42.668;23.298;2023-11-21T08:44:16;44.75;;;21.23;;
35675;SDS011;21790;42.668;23.298;2023-11-21T08:46:44;42.00;;;21.40;;
35675;SDS011;21790;42.668;23.298;2023-11-21T08:49:12;36.47;;;20.00;;
35675;SDS011;21790;42.668;23.298;2023-11-21T08:51:40;43.90;;;20.65;;
35675;SDS011;21790;42.668;23.298;2023-11-21T08:54:06;42.92;;;20.10;;
35675;SDS011;21790;42.668;23.298;2023-11-21T08:56:36;37.17;;;20.10;;
35675;SDS011;21790;42.668;23.298;2023-11-21T08:59:02;41.10;;;18.75;;
35675;SDS011;21790;42.668;23.298;2023-11-21T09:01:28;34.70;;;18.05;;
35675;SDS011;21790;42.668;23.298;2023-11-21T09:04:03;34.55;;;18.90;;
35675;SDS011;21790;42.668;23.298;2023-11-21T09:06:29;36.35;;;18.80;;
35675;SDS011;21790;42.668;23.298;2023-11-21T09:08:54;25.48;;;13.75;;
35675;SDS011;21790;42.668;23.298;2023-11-21T09:11:20;33.20;;;16.13;;
35675;SDS011;21790;42.668;23.298;2023-11-21T09:13:45;28.92;;;15.25;;
35675;SDS011;21790;42.668;23.298;2023-11-21T09:16:12;34.45;;;16.27;;
35675;SDS011;21790;42.668;23.298;2023-11-21T09:18:38;31.00;;;16.52;;
35675;SDS011;21790;42.668;23.298;2023-11-21T09:21:04;27.58;;;14.50;;
35675;SDS011;21790;42.668;23.298;2023-11-21T09:23:30;25.77;;;13.55;;
35675;SDS011;21790;42.668;23.298;2023-11-21T09:25:55;22.02;;;13.55;;
35675;SDS011;21790;42.668;23.298;2023-11-21T09:28:22;25.08;;;13.82;;
35675;SDS011;21790;42.668;23.298;2023-11-21T09:30:47;28.90;;;15.25;;
35675;SDS011;21790;42.668;23.298;2023-11-21T09:33:15;31.02;;;17.00;;
35675;SDS011;21790;42.668;23.298;2023-11-21T09:35:41;32.03;;;15.27;;
35675;SDS011;21790;42.668;23.298;2023-11-21T09:38:09;33.13;;;15.90;;
35675;SDS011;21790;42.668;23.298;2023-11-21T09:40:37;28.10;;;15.48;;
35675;SDS011;21790;42.668;23.298;2023-11-21T09:43:06;28.15;;;13.70;;
35675;SDS011;21790;42.668;23.298;2023-11-21T09:45:41;24.08;;;14.82;;
35675;SDS011;21790;42.668;23.298;2023-11-21T09:48:16;26.27;;;13.18;;
35675;SDS011;21790;42.668;23.298;2023-11-21T09:50:42;27.45;;;13.52;;
35675;SDS011;21790;42.668;23.298;2023-11-21T09:53:11;30.67;;;13.98;;
35675;SDS011;21790;42.668;23.298;2023-11-21T09:55:41;29.40;;;11.98;;
35675;SDS011;21790;42.668;23.298;2023-11-21T09:58:09;27.23;;;12.68;;
35675;SDS011;21790;42.668;23.298;2023-11-21T10:00:37;24.70;;;14.75;;
35675;SDS011;21790;42.668;23.298;2023-11-21T10:03:05;34.17;;;15.80;;
35675;SDS011;21790;42.668;23.298;2023-11-21T10:05:36;26.23;;;15.02;;
35675;SDS011;21790;42.668;23.298;2023-11-21T10:08:04;22.13;;;12.30;;
35675;SDS011;21790;42.668;23.298;2023-11-21T10:10:33;29.35;;;12.40;;
35675;SDS011;21790;42.668;23.298;2023-11-21T10:13:01;24.40;;;11.80;;
35675;SDS011;21790;42.668;23.298;2023-11-21T10:15:31;22.80;;;11.65;;
35675;SDS011;21790;42.668;23.298;2023-11-21T10:17:59;23.20;;;13.00;;
35675;SDS011;21790;42.668;23.298;2023-11-21T10:20:28;26.42;;;14.80;;
35675;SDS011;21790;42.668;23.298;2023-11-21T10:23:00;31.30;;;15.18;;
35675;SDS011;21790;42.668;23.298;2023-11-21T10:25:30;33.53;;;17.60;;
35675;SDS011;21790;42.668;23.298;2023-11-21T10:27:59;39.45;;;19.38;;
35675;SDS011;21790;42.668;23.298;2023-11-21T10:33:02;40.78;;;20.13;;
35675;SDS011;21790;42.668;23.298;2023-11-21T10:35:38;46.53;;;21.67;;
35675;SDS011;21790;42.668;23.298;2023-11-21T10:38:11;43.13;;;20.25;;
35675;SDS011;21790;42.668;23.298;2023-11-21T10:40:39;39.03;;;21.30;;
35675;SDS011;21790;42.668;23.298;2023-11-21T10:43:11;39.92;;;22.40;;
35675;SDS011;21790;42.668;23.298;2023-11-21T10:45:43;43.65;;;23.10;;
35675;SDS011;21790;42.668;23.298;2023-11-21T10:48:10;46.38;;;22.63;;
35675;SDS011;21790;42.668;23.298;2023-11-21T10:50:40;52.15;;;21.40;;
35675;SDS011;21790;42.668;23.298;2023-11-21T10:53:07;37.50;;;20.60;;
35675;SDS011;21790;42.668;23.298;2023-11-21T10:55:34;40.72;;;18.02;;
35675;SDS011;21790;42.668;23.298;2023-11-21T10:58:00;32.08;;;19.00;;
35675;SDS011;21790;42.668;23.298;2023-11-21T11:00:29;32.58;;;16.88;;
35675;SDS011;21790;42.668;23.298;2023-11-21T11:02:55;37.35;;;17.92;;
35675;SDS011;21790;42.668;23.298;2023-11-21T11:05:23;31.30;;;15.15;;
35675;SDS011;21790;42.668;23.298;2023-11-21T11:07:55;28.17;;;13.95;;
35675;SDS011;21790;42.668;23.298;2023-11-21T11:10:26;36.92;;;17.38;;
35675;SDS011;21790;42.668;23.298;2023-11-21T11:12:54;39.72;;;18.30;;
35675;SDS011;21790;42.668;23.298;2023-11-21T11:15:21;31.35;;;17.20;;
35675;SDS011;21790;42.668;23.298;2023-11-21T11:17:47;39.00;;;19.67;;
35675;SDS011;21790;42.668;23.298;2023-11-21T11:20:14;38.35;;;19.13;;
35675;SDS011;21790;42.668;23.298;2023-11-21T11:28:26;40.53;;;21.05;;
35675;SDS011;21790;42.668;23.298;2023-11-21T11:31:05;37.58;;;19.50;;
35675;SDS011;21790;42.668;23.298;2023-11-21T11:39:28;27.05;;;14.20;;
35675;SDS011;21790;42.668;23.298;2023-11-21T11:41:57;32.78;;;14.60;;
35675;SDS011;21790;42.668;23.298;2023-11-21T11:44:59;26.10;;;15.32;;
35675;SDS011;21790;42.668;23.298;2023-11-21T11:47:32;31.55;;;16.55;;
35675;SDS011;21790;42.668;23.298;2023-11-21T11:50:11;34.97;;;16.25;;
35675;SDS011;21790;42.668;23.298;2023-11-21T11:55:17;32.20;;;17.40;;
35675;SDS011;21790;42.668;23.298;2023-11-21T11:57:48;38.67;;;19.08;;
35675;SDS011;21790;42.668;23.298;2023-11-21T12:05:17;42.95;;;22.27;;
35675;SDS011;21790;42.668;23.298;2023-11-21T12:07:51;39.13;;;21.75;;
35675;SDS011;21790;42.668;23.298;2023-11-21T12:10:23;55.95;;;22.52;;
35675;SDS011;21790;42.668;23.298;2023-11-21T12:13:00;40.30;;;23.40;;
35675;SDS011;21790;42.668;23.298;2023-11-21T12:15:33;47.53;;;23.48;;
35675;SDS011;21790;42.668;23.298;2023-11-21T12:18:00;41.15;;;23.02;;
35675;SDS011;21790;42.668;23.298;2023-11-21T12:20:26;42.67;;;23.48;;
35675;SDS011;21790;42.668;23.298;2023-11-21T12:22:53;41.45;;;23.48;;
35675;SDS011;21790;42.668;23.298;2023-11-21T12:25:23;45.83;;;23.33;;
35675;SDS011;21790;42.668;23.298;2023-11-21T12:27:54;37.08;;;21.98;;
35675;SDS011;21790;42.668;23.298;2023-11-21T12:30:22;44.15;;;24.27;;
35675;SDS011;21790;42.668;23.298;2023-11-21T12:32:49;44.63;;;24.70;;
35675;SDS011;21790;42.668;23.298;2023-11-21T12:35:21;56.20;;;27.33;;
35675;SDS011;21790;42.668;23.298;2023-11-21T12:37:49;54.70;;;27.48;;
35675;SDS011;21790;42.668;23.298;2023-11-21T12:40:16;54.17;;;27.30;;
35675;SDS011;21790;42.668;23.298;2023-11-21T12:42:43;58.03;;;31.45;;
35675;SDS011;21790;42.668;23.298;2023-11-21T12:48:15;62.85;;;32.42;;
35675;SDS011;21790;42.668;23.298;2023-11-21T12:50:36;56.25;;;31.95;;
35675;SDS011;21790;42.668;23.298;2023-11-21T12:53:07;54.45;;;32.33;;
35675;SDS011;21790;42.668;23.298;2023-11-21T12:55:38;60.65;;;31.30;;
35675;SDS011;21790;42.668;23.298;2023-11-21T12:58:05;64.03;;;32.42;;
35675;SDS011;21790;42.668;23.298;2023-11-21T13:00:35;70.65;;;33.67;;
35675;SDS011;21790;42.668;23.298;2023-11-21T13:03:07;54.33;;;32.35;;
35675;SDS011;21790;42.668;23.298;2023-11-21T13:05:39;55.10;;;30.50;;
35675;SDS011;21790;42.668;23.298;2023-11-21T13:08:10;55.67;;;29.63;;
35675;SDS011;21790;42.668;23.298;2023-11-21T13:10:40;61.28;;;32.15;;
35675;SDS011;21790;42.668;23.298;2023-11-21T13:13:12;57.90;;;31.55;;
35675;SDS011;21790;42.668;23.298;2023-11-21T13:15:50;57.53;;;31.58;;
35675;SDS011;21790;42.668;23.298;2023-11-21T13:18:25;62.88;;;31.63;;
35675;SDS011;21790;42.668;23.298;2023-11-21T13:20:52;54.95;;;30.02;;
35675;SDS011;21790;42.668;23.298;2023-11-21T13:23:22;56.60;;;32.28;;
35675;SDS011;21790;42.668;23.298;2023-11-21T13:25:50;62.20;;;30.52;;
35675;SDS011;21790;42.668;23.298;2023-11-21T13:28:17;54.67;;;29.98;;
35675;SDS011;21790;42.668;23.298;2023-11-21T13:30:48;54.75;;;29.83;;
35675;SDS011;21790;42.668;23.298;2023-11-21T13:33:17;57.60;;;30.98;;
35675;SDS011;21790;42.668;23.298;2023-11-21T13:35:46;56.28;;;30.83;;
35675;SDS011;21790;42.668;23.298;2023-11-21T13:38:16;64.65;;;30.67;;
35675;SDS011;21790;42.668;23.298;2023-11-21T13:40:47;64.28;;;30.40;;
35675;SDS011;21790;42.668;23.298;2023-11-21T13:43:20;59.47;;;30.67;;
35675;SDS011;21790;42.668;23.298;2023-11-21T13:45:47;57.58;;;29.88;;
35675;SDS011;21790;42.668;23.298;2023-11-21T13:48:28;74.97;;;32.20;;
35675;SDS011;21790;42.668;23.298;2023-11-21T13:50:59;64.80;;;32.37;;
35675;SDS011;21790;42.668;23.298;2023-11-21T13:53:35;62.67;;;32.55;;
35675;SDS011;21790;42.668;23.298;2023-11-21T13:56:03;53.65;;;30.48;;
35675;SDS011;21790;42.668;23.298;2023-11-21T13:58:29;53.55;;;30.38;;
35675;SDS011;21790;42.668;23.298;2023-11-21T14:01:11;57.30;;;31.73;;
35675;SDS011;21790;42.668;23.298;2023-11-21T14:04:02;57.60;;;30.90;;
35675;SDS011;21790;42.668;23.298;2023-11-21T14:06:42;55.33;;;30.77;;
35675;SDS011;21790;42.668;23.298;2023-11-21T14:09:15;57.05;;;30.30;;
35675;SDS011;21790;42.668;23.298;2023-11-21T14:11:57;56.75;;;31.45;;
35675;SDS011;21790;42.668;23.298;2023-11-21T14:14:26;57.63;;;31.02;;
35675;SDS011;21790;42.668;23.298;2023-11-21T14:16:56;58.10;;;31.63;;
35675;SDS011;21790;42.668;23.298;2023-11-21T14:19:23;59.63;;;31.20;;
35675;SDS011;21790;42.668;23.298;2023-11-21T14:21:55;57.92;;;31.63;;
35675;SDS011;21790;42.668;23.298;2023-11-21T14:24:27;66.13;;;30.75;;
35675;SDS011;21790;42.668;23.298;2023-11-21T14:26:55;53.72;;;32.58;;
35675;SDS011;21790;42.668;23.298;2023-11-21T14:29:20;57.83;;;31.88;;
35675;SDS011;21790;42.668;23.298;2023-11-21T14:31:49;60.00;;;31.50;;
35675;SDS011;21790;42.668;23.298;2023-11-21T14:34:16;58.42;;;32.20;;
35675;SDS011;21790;42.668;23.298;2023-11-21T14:36:43;70.85;;;33.95;;
35675;SDS011;21790;42.668;23.298;2023-11-21T14:39:09;62.88;;;32.08;;
35675;SDS011;21790;42.668;23.298;2023-11-21T14:41:56;59.92;;;32.22;;
35675;SDS011;21790;42.668;23.298;2023-11-21T14:44:23;62.60;;;32.55;;
35675;SDS011;21790;42.668;23.298;2023-11-21T14:46:52;57.13;;;32.05;;
35675;SDS011;21790;42.668;23.298;2023-11-21T14:49:20;65.75;;;34.10;;
35675;SDS011;21790;42.668;23.298;2023-11-21T14:51:47;70.30;;;36.40;;
35675;SDS011;21790;42.668;23.298;2023-11-21T14:54:37;71.25;;;34.08;;
35675;SDS011;21790;42.668;23.298;2023-11-21T14:57:06;72.47;;;35.20;;
35675;SDS011;21790;42.668;23.298;2023-11-21T14:59:36;67.30;;;34.17;;
35675;SDS011;21790;42.668;23.298;2023-11-21T15:02:18;65.30;;;34.90;;
35675;SDS011;21790;42.668;23.298;2023-11-21T15:04:51;61.40;;;34.55;;
35675;SDS011;21790;42.668;23.298;2023-11-21T15:07:22;78.28;;;35.55;;
35675;SDS011;21790;42.668;23.298;2023-11-21T15:09:53;65.03;;;33.63;;
35675;SDS011;21790;42.668;23.298;2023-11-21T15:12:19;65.55;;;32.58;;
35675;SDS011;21790;42.668;23.298;2023-11-21T15:14:48;59.92;;;33.97;;
35675;SDS011;21790;42.668;23.298;2023-11-21T15:17:19;63.53;;;33.83;;
35675;SDS011;21790;42.668;23.298;2023-11-21T15:19:51;65.50;;;33.67;;
35675;SDS011;21790;42.668;23.298;2023-11-21T15:22:18;65.05;;;33.60;;
35675;SDS011;21790;42.668;23.298;2023-11-21T15:24:44;65.45;;;35.63;;
35675;SDS011;21790;42.668;23.298;2023-11-21T15:27:11;65.30;;;32.75;;
35675;SDS011;21790;42.668;23.298;2023-11-21T15:29:43;64.53;;;37.38;;
35675;SDS011;21790;42.668;23.298;2023-11-21T15:32:11;73.35;;;35.40;;
35675;SDS011;21790;42.668;23.298;2023-11-21T15:34:37;64.13;;;33.22;;
35675;SDS011;21790;42.668;23.298;2023-11-21T15:37:04;76.40;;;33.22;;
35675;SDS011;21790;42.668;23.298;2023-11-21T15:39:33;70.57;;;36.08;;
35675;SDS011;21790;42.668;23.298;2023-11-21T15:41:59;77.40;;;37.78;;
35675;SDS011;21790;42.668;23.298;2023-11-21T15:44:25;70.30;;;33.70;;
35675;SDS011;21790;42.668;23.298;2023-11-21T15:47:00;69.47;;;33.60;;
35675;SDS011;21790;42.668;23.298;2023-11-21T15:49:29;66.05;;;32.30;;
35675;SDS011;21790;42.668;23.298;2023-11-21T15:51:55;79.68;;;35.08;;
35675;SDS011;21790;42.668;23.298;2023-11-21T15:54:24;82.60;;;34.35;;
35675;SDS011;21790;42.668;23.298;2023-11-21T15:56:52;71.43;;;34.00;;
35675;SDS011;21790;42.668;23.298;2023-11-21T15:59:20;70.03;;;33.50;;
35675;SDS011;21790;42.668;23.298;2023-11-21T16:01:49;68.57;;;31.80;;
35675;SDS011;21790;42.668;23.298;2023-11-21T16:04:14;82.38;;;33.38;;
35675;SDS011;21790;42.668;23.298;2023-11-21T16:06:45;68.80;;;34.00;;
35675;SDS011;21790;42.668;23.298;2023-11-21T16:09:12;65.20;;;31.50;;
35675;SDS011;21790;42.668;23.298;2023-11-21T16:11:56;68.40;;;32.95;;